segunda-feira, 4 de janeiro de 2021

O voo descancelado


O primeiro domingo de 2021 (dia 3 de janeiro) foi, no arquipélago dos Açores, também sinónimo de mau tempo, sobretudo caracterizado por chuva e vento forte do quadrante sueste.

Por esse motivo, para a hora do voo para a ilha do Pico proveniente de São Miguel — SP 434 @ 16:50 — as condições atmosféricas previstas não eram as mais favoráveis à operação aérea, tendo o voo sido (inicialmente) cancelado [bem como o voo de retorno PIX/PDL — SP 435 @ 17:20].

METAR LPPI 031700Z 10028G40KT 9000 -RA FEW010 SCT014 BKN037 16/15 Q0999 RMK WIND RWY09 10024G35KT RWY27 09029G45KT
METAR LPPI 031730Z 10022G33KT 6000 RA FEW010 SCT015 BKN025 17/15 Q0999 RMK WIND RWY09 11026G40KT RWY27 10022G34KT

Porém, alguns minutos depois, era dada nova informação aos passageiros: o voo deixara de estar cancelado e transformara-se num voo atrasado, sendo que iriam esperar algum tempo para ver se as condições atmosféricas melhoravam.

Esta decisão de "descancelar" o voo veio a revelar-se uma decisão acertada, pois o tempo melhorou, o avião lá rumou em direção à ilha montanha e aterrou com um atraso de apenas pouco mais de uma hora — uma aterragem noturna, debaixo de chuva e ainda sob efeito do vento sueste.

METAR LPPI 031930Z 09025G35KT 5000 RA FEW010 SCT016 BKN030 16/15 Q0999 RMK WIND RWY09 10021G32KT RWY27 09025KT

Para mais tarde recordar, anexa-se alguns registos relacionados com este voo descancelado, com destaque para a filmagem da aterragem e da descolagem.

Por fim, uma palavra de saudação à SATA/Azores Airlines, a companhia aérea regional que, ao reverter uma decisão inicial um tanto ou quanto precipitada, permitiu transportar os passageiros no dia e horário pretendidos, servindo assim os interesses dos passageiros e proporcionando igualmente um magnífico serviço público (e sem grandes custos acrescidos!); além disso, este comportamento da SATA/Azores Airlines garantiu que o Aeroporto da ilha do Pico tenha se mantido sem registo de qualquer cancelamento nos primeiros três dias de 2021 — um feito inigualável no contexto do Triângulo e que se afigura como um bom prenúncio para o futuro.

Haja saúde!




Sem comentários:

Publicar um comentário

Para evitar perder a ideia do comentário, sugere-se que escreva primeiro o mesmo num editor de texto e depois copie para aqui; assim, se ocorrer algum erro (por vezes não funciona à primeira), tem sempre cópia do seu texto.

Muito obrigado por comentar neste blog! Haja saúde!